createdAt,value
2017-04-28T00:00:51.391Z,6.78
2017-04-28T00:03:20.361Z,7.68
2017-04-28T00:05:49.302Z,6.90
2017-04-28T00:08:18.307Z,9.45
2017-04-28T00:10:47.267Z,8.35
2017-04-28T00:13:16.469Z,8.22
2017-04-28T00:15:46.205Z,8.48
2017-04-28T00:18:15.950Z,10.62
2017-04-28T00:20:44.925Z,7.22
2017-04-28T00:23:17.494Z,10.32
2017-04-28T00:25:47.158Z,8.35
2017-04-28T00:28:16.126Z,11.62
2017-04-28T00:30:45.073Z,14.15
2017-04-28T00:33:15.078Z,9.23
2017-04-28T00:35:44.054Z,10.65
2017-04-28T00:38:13.040Z,12.02
2017-04-28T00:40:42.285Z,9.87
2017-04-28T00:43:11.335Z,10.72
2017-04-28T00:45:40.288Z,9.88
2017-04-28T00:48:09.621Z,8.62
2017-04-28T00:50:38.628Z,10.32
2017-04-28T00:53:07.619Z,8.55
2017-04-28T00:55:36.629Z,13.98
2017-04-28T00:58:05.614Z,11.05
2017-04-28T01:00:35.689Z,9.22
2017-04-28T01:03:04.656Z,10.27
2017-04-28T01:05:33.605Z,9.05
2017-04-28T01:08:02.574Z,9.77
2017-04-28T01:10:31.519Z,10.53
2017-04-28T01:13:00.853Z,8.72
2017-04-28T01:15:29.841Z,10.30
2017-04-28T01:17:58.836Z,11.20
2017-04-28T01:20:27.888Z,10.52
2017-04-28T01:22:56.837Z,8.53
2017-04-28T01:25:26.098Z,14.23
2017-04-28T01:27:55.057Z,11.48
2017-04-28T01:30:24.013Z,10.78
2017-04-28T01:32:53.403Z,12.42
2017-04-28T01:35:22.353Z,10.65
2017-04-28T01:37:51.327Z,12.35
2017-04-28T01:40:21.036Z,12.38
2017-04-28T01:42:50.020Z,13.52
2017-04-28T01:45:20.089Z,13.78
2017-04-28T01:47:49.056Z,11.77
2017-04-28T01:50:18.029Z,12.83
2017-04-28T01:52:47.025Z,13.42
2017-04-28T01:55:16.002Z,13.40
2017-04-28T01:57:46.006Z,12.33
2017-04-28T02:00:15.698Z,15.50
2017-04-28T02:02:44.651Z,12.62
2017-04-28T02:05:13.892Z,14.22
2017-04-28T02:07:42.981Z,14.08
2017-04-28T02:10:11.936Z,12.10
2017-04-28T02:12:40.901Z,18.83
2017-04-28T02:15:09.854Z,16.58
2017-04-28T02:17:39.240Z,15.97
2017-04-28T02:20:08.192Z,17.15
2017-04-28T02:22:37.146Z,18.43
2017-04-28T02:25:06.467Z,21.33
2017-04-28T02:27:35.422Z,18.05
2017-04-28T02:30:04.372Z,22.58
2017-04-28T02:32:33.339Z,19.50
2017-04-28T02:35:02.325Z,15.25
2017-04-28T02:37:31.591Z,14.67
2017-04-28T02:40:00.539Z,14.48
2017-04-28T02:42:29.483Z,15.97
2017-04-28T02:44:59.197Z,13.67
2017-04-28T02:47:28.913Z,16.28
2017-04-28T02:49:58.168Z,20.23
2017-04-28T02:52:27.117Z,13.87
2017-04-28T02:54:56.094Z,12.22
2017-04-28T02:57:25.083Z,16.02
2017-04-28T02:59:54.049Z,12.57
2017-04-28T03:02:23.340Z,14.12
2017-04-28T03:04:52.302Z,12.35
2017-04-28T03:07:21.252Z,15.17
2017-04-28T03:09:51.235Z,17.90
2017-04-28T03:12:20.246Z,15.98
2017-04-28T03:14:49.213Z,16.73
2017-04-28T03:17:18.198Z,13.42
2017-04-28T03:19:47.154Z,14.75
2017-04-28T03:22:16.407Z,13.55
2017-04-28T03:24:45.357Z,15.40
2017-04-28T03:27:14.356Z,18.98
2017-04-28T03:29:43.352Z,14.25
2017-04-28T03:32:12.305Z,15.18
2017-04-28T03:34:41.744Z,14.50
2017-04-28T03:37:10.698Z,15.85
2017-04-28T03:39:39.649Z,18.42
2017-04-28T03:42:08.924Z,14.38
2017-04-28T03:44:37.870Z,20.95
2017-04-28T03:47:06.875Z,16.48
2017-04-28T03:49:36.169Z,16.32
2017-04-28T03:52:05.141Z,14.08
2017-04-28T03:54:34.866Z,14.45
2017-04-28T03:57:03.981Z,15.03
2017-04-28T03:59:32.933Z,15.70
2017-04-28T04:02:02.919Z,17.53
2017-04-28T04:04:31.878Z,15.65
2017-04-28T04:07:00.848Z,16.98
2017-04-28T04:09:30.175Z,15.57
2017-04-28T04:11:59.195Z,17.48
2017-04-28T04:14:28.187Z,14.30
2017-04-28T04:16:57.146Z,21.95
2017-04-28T04:19:26.112Z,16.13
2017-04-28T04:21:55.575Z,12.95
2017-04-28T04:24:24.535Z,12.33
2017-04-28T04:26:53.498Z,18.25
2017-04-28T04:29:22.841Z,13.58
2017-04-28T04:31:51.833Z,13.28
2017-04-28T04:34:20.809Z,26.22
2017-04-28T04:36:49.795Z,14.68
2017-04-28T04:39:18.763Z,13.07
2017-04-28T04:41:48.146Z,11.23
2017-04-28T04:44:17.099Z,12.38
2017-04-28T04:46:46.023Z,14.23
2017-04-28T04:49:15.378Z,15.32
2017-04-28T04:51:44.333Z,11.80
2017-04-28T04:54:13.297Z,18.40
2017-04-28T04:56:42.282Z,13.97
2017-04-28T04:59:11.235Z,16.08
2017-04-28T05:01:40.568Z,17.48
2017-04-28T05:04:10.261Z,17.62
2017-04-28T05:06:39.219Z,17.48
2017-04-28T05:09:08.484Z,15.47
2017-04-28T05:11:37.469Z,13.85
2017-04-28T05:14:07.155Z,17.05
2017-04-28T05:16:36.109Z,17.70
2017-04-28T05:19:05.041Z,17.37
2017-04-28T05:21:35.037Z,19.48
2017-04-28T05:24:03.902Z,16.00
2017-04-28T05:26:32.905Z,15.95
2017-04-28T05:29:02.204Z,15.20
2017-04-28T05:31:31.170Z,17.15
2017-04-28T05:34:00.124Z,20.55
2017-04-28T05:36:29.837Z,18.72
2017-04-28T05:38:59.534Z,14.95
2017-04-28T05:41:29.536Z,16.58
2017-04-28T05:43:58.505Z,15.12
2017-04-28T05:46:27.463Z,17.15
2017-04-28T05:48:56.445Z,21.48
2017-04-28T05:51:25.411Z,16.17
2017-04-28T05:53:55.507Z,15.45
2017-04-28T05:56:24.469Z,18.33
2017-04-28T05:58:53.430Z,26.63
2017-04-28T06:01:22.790Z,32.58
2017-04-28T06:03:51.706Z,28.20
2017-04-28T06:06:20.714Z,29.18
2017-04-28T06:08:49.696Z,24.75
2017-04-28T06:11:18.670Z,28.45
2017-04-28T06:13:48.790Z,24.93
2017-04-28T06:16:18.511Z,18.18
2017-04-28T06:18:48.603Z,15.15
2017-04-28T06:21:17.562Z,16.97
2017-04-28T06:23:46.521Z,13.55
2017-04-28T06:26:15.760Z,29.93
2017-04-28T06:28:44.734Z,13.50
2017-04-28T06:31:13.738Z,11.67
2017-04-28T06:33:42.949Z,15.37
2017-04-28T06:36:12.701Z,13.42
2017-04-28T06:38:41.579Z,14.18
2017-04-28T06:41:10.949Z,18.48
2017-04-28T06:43:39.894Z,13.37
2017-04-28T06:46:08.848Z,14.83
2017-04-28T06:48:38.938Z,17.92
2017-04-28T06:51:07.895Z,18.98
2017-04-28T06:53:36.845Z,17.87
2017-04-28T06:56:06.639Z,17.47
2017-04-28T06:58:35.618Z,19.43
2017-04-28T07:01:04.913Z,12.30
2017-04-28T07:03:33.834Z,15.52
2017-04-28T07:06:03.538Z,10.62
2017-04-28T07:08:33.265Z,15.73
2017-04-28T07:11:02.211Z,11.73
2017-04-28T07:13:31.450Z,15.72
2017-04-28T07:16:01.145Z,12.32
2017-04-28T07:18:30.784Z,11.67
2017-04-28T07:21:00.233Z,10.07
2017-04-28T07:23:29.210Z,11.07
2017-04-28T07:25:58.217Z,11.72
2017-04-28T07:28:27.251Z,22.18
2017-04-28T07:30:56.214Z,28.70
2017-04-28T07:33:26.299Z,32.90
2017-04-28T07:35:55.271Z,50.97
2017-04-28T07:38:24.256Z,33.02
2017-04-28T07:40:53.258Z,15.97
2017-04-28T07:43:22.212Z,12.70
2017-04-28T07:45:51.563Z,13.78
2017-04-28T07:48:20.524Z,14.73
2017-04-28T07:50:49.478Z,12.68
2017-04-28T07:53:19.207Z,14.70
2017-04-28T07:55:48.204Z,17.72
2017-04-28T07:58:17.541Z,17.42
2017-04-28T08:00:46.498Z,16.35
2017-04-28T08:03:15.458Z,15.90
2017-04-28T08:05:45.172Z,17.35
2017-04-28T08:08:14.913Z,17.50
2017-04-28T08:10:44.180Z,17.18
2017-04-28T08:13:13.893Z,16.57
2017-04-28T08:15:43.624Z,14.22
2017-04-28T08:18:12.595Z,15.65
2017-04-28T08:20:41.566Z,15.27
2017-04-28T08:23:10.461Z,16.92
2017-04-28T08:25:39.494Z,16.72
2017-04-28T08:28:08.735Z,17.10
2017-04-28T08:30:38.172Z,17.30
2017-04-28T08:33:07.160Z,27.92
2017-04-28T08:35:36.144Z,16.90
2017-04-28T08:38:05.852Z,17.87
2017-04-28T08:40:35.893Z,15.17
2017-04-28T08:43:04.873Z,15.30
2017-04-28T08:45:33.886Z,15.45
2017-04-28T08:48:02.875Z,17.98
2017-04-28T08:50:31.827Z,15.67
2017-04-28T08:53:01.914Z,19.35
2017-04-28T08:55:31.634Z,24.35
2017-04-28T08:58:00.601Z,18.80
2017-04-28T09:00:29.590Z,16.10
2017-04-28T09:02:58.577Z,17.97
2017-04-28T09:05:27.898Z,18.15
2017-04-28T09:07:56.869Z,26.78
2017-04-28T09:10:25.831Z,25.62
2017-04-28T09:12:54.887Z,23.92
2017-04-28T09:15:24.630Z,12.60
2017-04-28T09:17:53.986Z,12.73
2017-04-28T09:20:22.951Z,15.93
2017-04-28T09:22:51.957Z,21.32
2017-04-28T09:25:20.923Z,18.72
2017-04-28T09:27:49.879Z,14.28
2017-04-28T09:30:19.229Z,14.33
2017-04-28T09:32:48.199Z,17.95
2017-04-28T09:35:17.228Z,14.28
2017-04-28T09:37:46.201Z,11.12
2017-04-28T09:40:15.197Z,11.02
2017-04-28T09:42:44.524Z,11.32
2017-04-28T09:45:13.563Z,15.10
2017-04-28T09:47:42.541Z,44.40
2017-04-28T09:50:11.893Z,22.55
2017-04-28T09:52:40.845Z,25.00
2017-04-28T09:55:09.798Z,20.02
2017-04-28T09:57:39.526Z,18.23
2017-04-28T10:00:08.488Z,18.37
2017-04-28T10:02:38.585Z,13.50
2017-04-28T10:05:07.567Z,12.12
2017-04-28T10:07:36.522Z,10.53
2017-04-28T10:10:05.846Z,8.57
2017-04-28T10:12:34.798Z,9.78
2017-04-28T10:15:03.839Z,13.42
2017-04-28T10:17:32.803Z,10.62
2017-04-28T10:20:01.768Z,8.88
2017-04-28T10:22:31.018Z,5.60
2017-04-28T10:25:00.047Z,9.57
2017-04-28T10:27:29.733Z,7.83
2017-04-28T10:29:58.712Z,5.98
2017-04-28T10:32:27.691Z,6.23
2017-04-28T10:34:57.016Z,5.15
2017-04-28T10:37:25.972Z,5.78
2017-04-28T10:39:54.943Z,5.80
2017-04-28T10:42:23.924Z,6.87
2017-04-28T10:44:52.876Z,11.97
2017-04-28T10:47:22.113Z,10.53
2017-04-28T10:49:51.079Z,8.42
2017-04-28T10:52:20.767Z,13.52
2017-04-28T10:54:49.759Z,11.43
2017-04-28T10:57:18.729Z,7.10
2017-04-28T10:59:47.968Z,10.28
2017-04-28T11:02:17.680Z,5.47
2017-04-28T11:04:47.421Z,11.65
2017-04-28T11:07:16.483Z,5.35
2017-04-28T11:09:46.171Z,4.80
2017-04-28T11:12:15.443Z,5.08
2017-04-28T11:14:44.430Z,5.82
2017-04-28T11:17:13.417Z,4.40
2017-04-28T11:19:42.386Z,6.58
2017-04-28T11:22:11.336Z,6.00
2017-04-28T11:24:40.606Z,11.60
2017-04-28T11:27:09.581Z,8.78
2017-04-28T11:29:38.623Z,5.88
2017-04-28T11:32:08.346Z,4.77
2017-04-28T11:34:37.340Z,5.57
2017-04-28T11:37:06.686Z,4.13
2017-04-28T11:39:35.637Z,4.38
2017-04-28T11:42:04.598Z,4.78
2017-04-28T11:44:34.600Z,4.97
2017-04-28T11:47:03.569Z,4.23
2017-04-28T11:49:32.539Z,7.37
2017-04-28T11:52:01.525Z,6.13
2017-04-28T11:54:30.488Z,5.83
2017-04-28T11:57:00.703Z,5.42
2017-04-28T11:59:30.454Z,4.82
2017-04-28T12:01:59.410Z,5.38
2017-04-28T12:04:28.409Z,6.75
2017-04-28T12:06:57.374Z,5.92
2017-04-28T12:09:26.632Z,7.65
2017-04-28T12:11:55.614Z,7.73
2017-04-28T12:14:24.561Z,5.62
2017-04-28T12:16:54.304Z,5.10
2017-04-28T12:19:23.253Z,4.02
2017-04-28T12:21:53.342Z,6.45
2017-04-28T12:24:22.301Z,13.72
2017-04-28T12:26:51.262Z,8.93
2017-04-28T12:29:20.973Z,10.88
2017-04-28T12:31:50.666Z,6.78
2017-04-28T12:34:19.931Z,6.02
2017-04-28T12:36:48.893Z,5.52
2017-04-28T12:39:17.854Z,7.77
2017-04-28T12:41:47.578Z,8.75
2017-04-28T12:44:16.546Z,7.45
2017-04-28T12:46:46.629Z,7.78
2017-04-28T12:49:15.594Z,6.62
2017-04-28T12:51:44.452Z,7.10
2017-04-28T12:54:13.818Z,10.68
2017-04-28T12:56:42.786Z,7.95
2017-04-28T12:59:11.737Z,6.10
2017-04-28T13:01:41.819Z,9.38
2017-04-28T13:04:10.794Z,10.78
2017-04-28T13:06:39.749Z,6.83
2017-04-28T13:09:09.095Z,9.22
2017-04-28T13:11:38.062Z,11.25
2017-04-28T13:14:07.035Z,14.08
2017-04-28T13:16:36.025Z,19.17
2017-04-28T13:19:05.372Z,16.55
2017-04-28T13:21:34.661Z,14.22
2017-04-28T13:24:03.626Z,12.85
2017-04-28T13:26:32.611Z,11.33
2017-04-28T13:29:01.596Z,8.82
2017-04-28T13:31:30.560Z,10.85
2017-04-28T13:34:00.579Z,12.62
2017-04-28T13:36:30.287Z,9.70
2017-04-28T13:39:00.282Z,9.02
2017-04-28T13:41:29.237Z,10.10
2017-04-28T13:43:58.207Z,8.53
2017-04-28T13:46:27.549Z,9.70
2017-04-28T13:48:56.510Z,9.78
2017-04-28T13:51:25.940Z,14.58
2017-04-28T13:53:55.244Z,5.78
2017-04-28T13:56:24.200Z,8.93
2017-04-28T13:58:53.172Z,7.95
2017-04-28T14:01:22.143Z,7.92
2017-04-28T14:03:51.868Z,7.80
2017-04-28T14:06:21.217Z,10.80
2017-04-28T14:08:50.181Z,10.72
2017-04-28T14:11:19.134Z,8.12
2017-04-28T14:13:49.202Z,8.80
2017-04-28T14:16:18.169Z,8.62
2017-04-28T14:18:47.161Z,8.02
2017-04-28T14:21:16.160Z,7.62
2017-04-28T14:23:45.158Z,8.83
2017-04-28T14:26:14.478Z,8.37
2017-04-28T14:28:43.459Z,7.10
2017-04-28T14:31:12.426Z,10.12
2017-04-28T14:33:41.754Z,7.80
2017-04-28T14:36:10.755Z,8.72
2017-04-28T14:38:39.728Z,8.87
2017-04-28T14:41:08.823Z,7.58
2017-04-28T14:43:37.775Z,9.32
2017-04-28T14:46:07.094Z,8.55
2017-04-28T14:48:36.039Z,7.53
2017-04-28T14:51:05.757Z,7.05
2017-04-28T14:53:35.500Z,8.72
2017-04-28T14:56:04.450Z,8.55
2017-04-28T14:58:34.459Z,9.17
2017-04-28T15:01:04.182Z,9.57
2017-04-28T15:03:33.122Z,8.73
2017-04-28T15:06:02.356Z,10.52
2017-04-28T15:08:32.082Z,9.47
2017-04-28T15:11:01.059Z,10.75
2017-04-28T15:13:31.153Z,13.53
2017-04-28T15:16:00.134Z,13.88
2017-04-28T15:18:29.096Z,14.37
2017-04-28T15:20:58.121Z,12.50
2017-04-28T15:23:27.096Z,12.23
2017-04-28T15:25:56.397Z,18.02
2017-04-28T15:28:25.363Z,18.08
2017-04-28T15:30:54.349Z,18.68
2017-04-28T15:33:23.369Z,20.00
2017-04-28T15:35:52.366Z,15.70
2017-04-28T15:38:21.621Z,18.68
2017-04-28T15:40:50.620Z,16.18
2017-04-28T15:43:19.582Z,20.02
2017-04-28T15:45:49.335Z,18.05
2017-04-28T15:48:18.327Z,17.37
2017-04-28T15:50:47.642Z,17.43
2017-04-28T15:53:16.518Z,20.85
2017-04-28T15:55:45.541Z,17.17
2017-04-28T15:58:14.587Z,17.30
2017-04-28T16:00:43.535Z,23.13
2017-04-28T16:03:13.268Z,20.18
2017-04-28T16:05:42.253Z,22.00
2017-04-28T16:08:11.212Z,24.13
2017-04-28T16:10:40.208Z,25.25
2017-04-28T16:13:09.194Z,25.92
2017-04-28T16:15:38.483Z,26.33
2017-04-28T16:18:07.457Z,26.92
2017-04-28T16:20:36.436Z,26.40
2017-04-28T16:23:05.438Z,24.47
2017-04-28T16:25:34.383Z,25.85
2017-04-28T16:28:04.396Z,20.33
2017-04-28T16:30:34.131Z,21.55
2017-04-28T16:33:03.115Z,24.07
2017-04-28T16:35:32.446Z,22.53
2017-04-28T16:38:01.416Z,20.20
2017-04-28T16:40:30.383Z,19.85
2017-04-28T16:43:00.458Z,22.02
2017-04-28T16:45:29.417Z,21.48
2017-04-28T16:47:58.405Z,18.88
2017-04-28T16:50:27.427Z,24.22
2017-04-28T16:52:56.405Z,26.93
2017-04-28T16:55:25.681Z,24.82
2017-04-28T16:57:54.667Z,25.35
2017-04-28T17:00:23.649Z,24.82
2017-04-28T17:02:52.659Z,29.13
2017-04-28T17:05:21.673Z,30.73
2017-04-28T17:07:50.979Z,29.10
2017-04-28T17:10:19.957Z,28.05
2017-04-28T17:12:48.935Z,27.92
2017-04-28T17:15:18.298Z,28.13
2017-04-28T17:17:48.010Z,25.90
2017-04-28T17:20:16.989Z,23.77
2017-04-28T17:22:46.634Z,27.32
2017-04-28T17:25:15.649Z,22.77
2017-04-28T17:27:44.917Z,21.75
2017-04-28T17:30:13.906Z,23.87
2017-04-28T17:32:42.891Z,24.65
2017-04-28T17:35:12.243Z,29.65
2017-04-28T17:37:41.204Z,19.75
2017-04-28T17:40:10.172Z,22.00
2017-04-28T17:42:39.502Z,19.60
2017-04-28T17:45:08.476Z,24.65
2017-04-28T17:47:37.456Z,22.88
2017-04-28T17:50:06.466Z,24.88
2017-04-28T17:52:35.439Z,19.80
2017-04-28T17:55:04.763Z,19.98
2017-04-28T17:57:33.741Z,23.08
2017-04-28T18:00:02.764Z,21.10
2017-04-28T18:02:31.766Z,20.38
2017-04-28T18:05:00.742Z,17.95
2017-04-28T18:07:29.975Z,26.35
2017-04-28T18:09:59.687Z,31.52
2017-04-28T18:12:29.409Z,21.70
2017-04-28T18:14:58.394Z,16.62
2017-04-28T18:17:27.404Z,14.40
2017-04-28T18:19:56.757Z,11.73
2017-04-28T18:22:25.742Z,15.85
2017-04-28T18:24:54.737Z,16.92
2017-04-28T18:27:23.751Z,17.22
2017-04-28T18:29:52.749Z,18.92
2017-04-28T18:32:22.121Z,22.33
2017-04-28T18:34:51.117Z,21.57
2017-04-28T18:37:20.115Z,20.68
2017-04-28T18:39:49.122Z,17.62
2017-04-28T18:42:18.161Z,21.87
2017-04-28T18:44:47.186Z,19.72
2017-04-28T18:47:16.216Z,36.72
2017-04-28T18:49:45.664Z,38.28
2017-04-28T18:52:14.682Z,38.52
2017-04-28T18:54:43.602Z,26.42
2017-04-28T18:57:12.944Z,23.68
2017-04-28T18:59:41.973Z,18.73
2017-04-28T19:02:11.003Z,22.57
2017-04-28T19:04:40.268Z,23.97
2017-04-28T19:07:09.383Z,25.07
2017-04-28T19:09:38.418Z,25.43
2017-04-28T19:12:07.741Z,23.53
2017-04-28T19:14:36.727Z,22.48
2017-04-28T19:17:05.732Z,27.83
2017-04-28T19:19:34.780Z,25.67
2017-04-28T19:22:03.819Z,23.05
2017-04-28T19:24:33.308Z,26.98
2017-04-28T19:27:02.341Z,22.27
2017-04-28T19:29:31.346Z,27.53
2017-04-28T19:32:00.353Z,27.10
2017-04-28T19:34:29.348Z,26.58
2017-04-28T19:36:58.784Z,35.08
2017-04-28T19:39:27.803Z,26.53
2017-04-28T19:41:56.819Z,27.80
2017-04-28T19:44:26.231Z,31.22
2017-04-28T19:46:55.265Z,25.50
2017-04-28T19:49:24.284Z,34.28
2017-04-28T19:51:53.591Z,32.22
2017-04-28T19:54:23.036Z,41.05
2017-04-28T19:56:52.038Z,32.48
2017-04-28T19:59:21.094Z,42.88
2017-04-28T20:01:50.112Z,47.17
2017-04-28T20:04:19.503Z,38.67
2017-04-28T20:06:48.513Z,33.30
2017-04-28T20:09:17.497Z,31.73
2017-04-28T20:11:46.981Z,43.22
2017-04-28T20:14:16.041Z,40.67
2017-04-28T20:16:45.028Z,39.48
2017-04-28T20:19:14.310Z,38.35
2017-04-28T20:21:43.405Z,38.98
2017-04-28T20:24:12.457Z,35.65
2017-04-28T20:26:41.487Z,41.75
2017-04-28T20:29:10.490Z,41.33
2017-04-28T20:31:39.849Z,55.73
2017-04-28T20:34:08.844Z,51.63
2017-04-28T20:36:37.838Z,35.68
2017-04-28T20:39:07.100Z,44.10
2017-04-28T20:41:36.077Z,38.33
2017-04-28T20:44:05.069Z,35.48
2017-04-28T20:46:34.077Z,40.82
2017-04-28T20:49:03.044Z,45.55
2017-04-28T20:51:32.373Z,43.52
2017-04-28T20:54:01.368Z,47.08
2017-04-28T20:56:30.320Z,39.00
2017-04-28T20:58:59.307Z,42.30
2017-04-28T21:01:28.265Z,44.57
2017-04-28T21:03:57.526Z,45.03
2017-04-28T21:06:26.470Z,46.17
2017-04-28T21:08:55.468Z,55.80
2017-04-28T21:11:24.469Z,51.88
2017-04-28T21:13:53.434Z,51.60
2017-04-28T21:16:22.699Z,49.07
2017-04-28T21:18:51.655Z,55.38
2017-04-28T21:21:20.694Z,49.20
2017-04-28T21:23:49.590Z,59.35
2017-04-28T21:26:18.574Z,44.90
2017-04-28T21:28:47.832Z,58.42
2017-04-28T21:31:16.811Z,57.48
2017-04-28T21:33:45.802Z,53.57
2017-04-28T21:36:15.123Z,55.55
2017-04-28T21:38:44.080Z,58.10
2017-04-28T21:41:13.035Z,50.03
2017-04-28T21:43:42.379Z,59.80
2017-04-28T21:46:11.363Z,53.45
2017-04-28T21:48:40.322Z,51.72
2017-04-28T21:51:10.138Z,62.92
2017-04-28T21:53:39.860Z,53.02
2017-04-28T21:56:09.160Z,51.00
2017-04-28T21:58:38.118Z,50.32
2017-04-28T22:01:07.051Z,53.35
2017-04-28T22:03:36.318Z,52.67
2017-04-28T22:06:05.277Z,48.95
2017-04-28T22:08:34.226Z,53.42
2017-04-28T22:11:03.206Z,53.30
2017-04-28T22:13:32.194Z,57.33
2017-04-28T22:16:19.874Z,51.68
2017-04-28T22:18:48.828Z,57.07
2017-04-28T22:21:17.774Z,47.50
2017-04-28T22:23:47.020Z,54.90
2017-04-28T22:26:16.027Z,48.50
2017-04-28T22:28:44.988Z,47.30
2017-04-28T22:31:13.967Z,56.12
2017-04-28T22:33:43.670Z,49.07
2017-04-28T22:36:13.857Z,49.25
2017-04-28T22:38:42.865Z,58.07
2017-04-28T22:41:11.816Z,49.48
2017-04-28T22:43:40.792Z,52.85
2017-04-28T22:46:09.755Z,55.53
2017-04-28T22:48:40.037Z,55.25
2017-04-28T22:51:09.010Z,54.18
2017-04-28T22:53:37.989Z,49.12
2017-04-28T22:56:06.961Z,57.13
2017-04-28T22:58:35.937Z,49.47
2017-04-28T23:01:06.024Z,51.30
2017-04-28T23:03:34.987Z,57.25
2017-04-28T23:06:03.981Z,53.48
2017-04-28T23:08:32.956Z,53.27
2017-04-28T23:11:01.917Z,52.33
2017-04-28T23:13:31.377Z,54.27
2017-04-28T23:16:00.332Z,56.38
2017-04-28T23:18:29.298Z,51.82
2017-04-28T23:20:58.294Z,53.35
2017-04-28T23:23:28.968Z,57.17
2017-04-28T23:25:58.278Z,54.60
2017-04-28T23:28:27.258Z,49.18
2017-04-28T23:30:56.206Z,55.32
2017-04-28T23:33:26.010Z,49.27
2017-04-28T23:35:55.713Z,54.25
2017-04-28T23:38:25.809Z,51.60
2017-04-28T23:40:54.768Z,50.72
2017-04-28T23:43:23.723Z,51.58
2017-04-28T23:45:53.473Z,52.80
2017-04-28T23:48:22.440Z,44.83
2017-04-28T23:50:51.878Z,47.33
2017-04-28T23:53:20.840Z,47.13
2017-04-28T23:55:49.799Z,55.10
2017-04-28T23:58:18.478Z,47.57
